createdAt,value
2022-09-17T00:01:23.230Z,11.60
2022-09-17T00:04:00.417Z,11.60
2022-09-17T00:06:27.857Z,11.60
2022-09-17T00:08:55.192Z,11.70
2022-09-17T00:11:29.157Z,11.70
2022-09-17T00:13:58.111Z,11.70
2022-09-17T00:16:38.880Z,11.70
2022-09-17T00:19:08.427Z,11.60
2022-09-17T00:21:36.517Z,11.60
2022-09-17T00:24:06.347Z,11.50
2022-09-17T00:26:34.989Z,11.50
2022-09-17T00:29:02.309Z,11.50
2022-09-17T00:31:30.684Z,11.40
2022-09-17T00:33:59.099Z,11.30
2022-09-17T00:36:26.377Z,11.30
2022-09-17T00:38:59.139Z,11.40
2022-09-17T00:41:29.069Z,11.40
2022-09-17T00:44:01.416Z,11.40
2022-09-17T00:46:31.615Z,11.40
2022-09-17T00:49:02.301Z,11.50
2022-09-17T00:51:41.671Z,11.60
2022-09-17T00:54:10.717Z,11.60
2022-09-17T00:56:41.255Z,11.60
2022-09-17T00:59:08.957Z,11.60
2022-09-17T01:01:36.704Z,11.70
2022-09-17T01:04:03.873Z,11.70
2022-09-17T01:07:00.591Z,11.60
2022-09-17T01:09:48.882Z,11.70
2022-09-17T01:12:53.338Z,11.70
2022-09-17T01:16:03.367Z,11.80
2022-09-17T01:18:56.952Z,11.70
2022-09-17T01:21:45.282Z,11.70
2022-09-17T01:24:30.120Z,11.80
2022-09-17T01:27:16.610Z,11.70
2022-09-17T01:29:52.732Z,11.80
2022-09-17T01:32:52.199Z,11.80
2022-09-17T01:36:01.141Z,11.70
2022-09-17T01:39:18.768Z,11.70
2022-09-17T01:41:55.052Z,11.80
2022-09-17T01:44:37.045Z,11.70
2022-09-17T01:47:21.060Z,11.70
2022-09-17T01:49:50.885Z,11.70
2022-09-17T01:52:19.993Z,11.70
2022-09-17T01:54:50.898Z,11.70
2022-09-17T01:57:28.222Z,11.70
2022-09-17T02:00:04.272Z,11.60
2022-09-17T02:02:41.832Z,11.60
2022-09-17T02:05:34.316Z,11.70
2022-09-17T02:08:11.153Z,11.70
2022-09-17T02:10:42.968Z,11.60
2022-09-17T02:13:30.074Z,11.60
2022-09-17T02:16:04.982Z,11.60
2022-09-17T02:18:57.553Z,11.60
2022-09-17T02:21:30.099Z,11.60
2022-09-17T02:24:20.099Z,11.50
2022-09-17T02:27:01.046Z,11.50
2022-09-17T02:29:44.849Z,11.50
2022-09-17T02:32:13.421Z,11.50
2022-09-17T02:34:40.559Z,11.50
2022-09-17T02:37:08.353Z,11.40
2022-09-17T02:39:35.750Z,11.40
2022-09-17T02:42:08.561Z,11.40
2022-09-17T02:44:47.020Z,11.30
2022-09-17T02:47:49.961Z,11.30
2022-09-17T02:50:41.590Z,11.30
2022-09-17T02:53:26.859Z,11.30
2022-09-17T02:56:07.068Z,11.40
2022-09-17T02:58:53.703Z,11.40
2022-09-17T03:01:44.872Z,11.30
2022-09-17T03:04:15.962Z,11.20
2022-09-17T03:06:45.609Z,11.20
2022-09-17T03:09:18.446Z,11.30
2022-09-17T03:11:45.454Z,11.30
2022-09-17T03:14:12.389Z,11.30
2022-09-17T03:16:39.417Z,11.30
2022-09-17T03:19:06.467Z,11.20
2022-09-17T03:21:33.406Z,11.20
2022-09-17T03:24:00.436Z,11.20
2022-09-17T03:26:27.768Z,11.10
2022-09-17T03:28:56.408Z,11.10
2022-09-17T03:31:23.343Z,11.10
2022-09-17T03:33:50.740Z,11.10
2022-09-17T03:36:20.011Z,11.10
2022-09-17T03:38:47.099Z,11.10
2022-09-17T03:41:13.995Z,11.20
2022-09-17T03:43:40.905Z,11.10
2022-09-17T03:46:07.855Z,11.10
2022-09-17T03:48:37.312Z,11.20
2022-09-17T03:51:04.515Z,11.20
2022-09-17T03:53:31.836Z,11.20
2022-09-17T03:56:03.570Z,11.20
2022-09-17T03:58:32.395Z,11.20
2022-09-17T04:00:59.579Z,11.20
2022-09-17T04:03:29.820Z,11.20
2022-09-17T04:05:56.932Z,11.10
2022-09-17T04:08:24.061Z,11.10
2022-09-17T04:10:52.011Z,11.10
2022-09-17T04:13:19.680Z,11.10
2022-09-17T04:15:47.276Z,11.10
2022-09-17T04:18:14.706Z,11.10
2022-09-17T04:20:41.761Z,11.10
2022-09-17T04:23:10.900Z,11.10
2022-09-17T04:25:38.066Z,11.10
2022-09-17T04:28:05.013Z,11.10
2022-09-17T04:30:32.288Z,11.10
2022-09-17T04:32:59.149Z,11.10
2022-09-17T04:35:26.265Z,11.00
2022-09-17T04:37:55.109Z,11.10
2022-09-17T04:40:22.943Z,11.20
2022-09-17T04:42:53.788Z,11.20
2022-09-17T04:45:21.196Z,11.20
2022-09-17T04:47:48.251Z,11.10
2022-09-17T04:50:15.225Z,11.10
2022-09-17T04:52:45.800Z,11.10
2022-09-17T04:55:13.794Z,11.00
2022-09-17T04:57:47.505Z,11.10
2022-09-17T05:00:15.734Z,11.00
2022-09-17T05:02:46.918Z,11.00
2022-09-17T05:05:16.501Z,11.00
2022-09-17T05:07:43.963Z,11.00
2022-09-17T05:10:13.908Z,11.00
2022-09-17T05:12:40.890Z,11.00
2022-09-17T05:15:08.210Z,11.00
2022-09-17T05:17:35.146Z,11.00
2022-09-17T05:20:02.257Z,11.00
2022-09-17T05:22:29.347Z,10.90
2022-09-17T05:24:56.291Z,10.90
2022-09-17T05:27:23.227Z,10.90
2022-09-17T05:29:50.123Z,10.80
2022-09-17T05:32:17.037Z,10.90
2022-09-17T05:34:43.980Z,10.80
2022-09-17T05:37:11.418Z,10.90
2022-09-17T05:39:38.397Z,10.90
2022-09-17T05:42:05.420Z,10.90
2022-09-17T05:44:32.514Z,10.90
2022-09-17T05:46:59.688Z,11.00
2022-09-17T05:49:27.018Z,11.00
2022-09-17T05:51:53.872Z,11.00
2022-09-17T05:54:20.834Z,11.00
2022-09-17T05:56:47.761Z,11.00
2022-09-17T05:59:15.579Z,11.00
2022-09-17T06:01:42.899Z,11.00
2022-09-17T06:04:09.832Z,11.00
2022-09-17T06:06:37.886Z,11.00
2022-09-17T06:09:08.921Z,11.00
2022-09-17T06:11:36.980Z,11.00
2022-09-17T06:14:04.872Z,10.90
2022-09-17T06:16:33.046Z,11.00
2022-09-17T06:19:00.137Z,11.00
2022-09-17T06:21:27.222Z,11.10
2022-09-17T06:23:54.382Z,11.20
2022-09-17T06:26:21.281Z,11.20
2022-09-17T06:28:48.183Z,11.20
2022-09-17T06:31:15.166Z,11.30
2022-09-17T06:33:42.258Z,11.30
2022-09-17T06:36:13.937Z,11.40
2022-09-17T06:38:42.323Z,11.40
2022-09-17T06:41:09.235Z,11.40
2022-09-17T06:43:36.156Z,11.50
2022-09-17T06:46:09.327Z,11.50
2022-09-17T06:48:37.662Z,11.60
2022-09-17T06:51:07.512Z,11.60
2022-09-17T06:53:37.363Z,11.60
2022-09-17T06:56:06.854Z,11.70
2022-09-17T06:58:37.459Z,11.70
2022-09-17T07:01:06.507Z,11.70
2022-09-17T07:03:33.975Z,11.70
2022-09-17T07:06:01.012Z,11.70
2022-09-17T07:08:28.090Z,11.60
2022-09-17T07:11:01.214Z,11.60
2022-09-17T07:13:31.049Z,11.60
2022-09-17T07:16:00.869Z,11.50
2022-09-17T07:18:28.710Z,11.60
2022-09-17T07:20:58.017Z,11.80
2022-09-17T07:23:27.796Z,11.90
2022-09-17T07:26:02.253Z,11.90
2022-09-17T07:28:29.830Z,11.90
2022-09-17T07:30:57.538Z,11.90
2022-09-17T07:33:27.748Z,11.90
2022-09-17T07:36:00.130Z,11.80
2022-09-17T07:38:28.733Z,11.80
2022-09-17T07:41:01.277Z,11.80
2022-09-17T07:43:32.862Z,11.80
2022-09-17T07:46:01.320Z,11.80
2022-09-17T07:48:29.768Z,11.80
2022-09-17T07:50:57.822Z,11.90
2022-09-17T07:53:25.434Z,12.00
2022-09-17T07:55:57.693Z,12.20
2022-09-17T07:58:32.407Z,12.30
2022-09-17T08:01:08.671Z,12.40
2022-09-17T08:03:40.086Z,12.50
2022-09-17T08:06:16.105Z,12.60
2022-09-17T08:08:43.407Z,12.80
2022-09-17T08:11:32.396Z,12.80
2022-09-17T08:14:04.249Z,12.90
2022-09-17T08:16:32.073Z,12.80
2022-09-17T08:18:59.238Z,12.80
2022-09-17T08:21:26.343Z,12.90
2022-09-17T08:23:54.010Z,13.00
2022-09-17T08:26:23.776Z,13.10
2022-09-17T08:28:55.151Z,13.20
2022-09-17T08:31:28.432Z,13.30
2022-09-17T08:33:55.883Z,13.30
2022-09-17T08:36:24.502Z,13.40
2022-09-17T08:38:54.268Z,13.40
2022-09-17T08:41:29.353Z,13.30
2022-09-17T08:44:15.428Z,13.30
2022-09-17T08:47:06.510Z,13.50
2022-09-17T08:49:37.158Z,13.60
2022-09-17T08:52:14.194Z,13.70
2022-09-17T08:55:03.539Z,13.70
2022-09-17T08:58:02.947Z,13.60
2022-09-17T09:00:38.197Z,13.80
2022-09-17T09:03:11.494Z,13.90
2022-09-17T09:05:50.366Z,14.00
2022-09-17T09:08:43.009Z,14.00
2022-09-17T09:11:21.968Z,14.10
2022-09-17T09:14:00.662Z,14.30
2022-09-17T09:16:33.635Z,14.40
2022-09-17T09:19:22.435Z,14.60
2022-09-17T09:22:06.230Z,14.80
2022-09-17T09:24:45.853Z,14.60
2022-09-17T09:27:17.911Z,14.50
2022-09-17T09:29:54.086Z,14.50
2022-09-17T09:32:38.852Z,14.50
2022-09-17T09:35:30.166Z,14.50
2022-09-17T09:38:32.823Z,14.60
2022-09-17T09:41:15.627Z,14.60
2022-09-17T09:44:12.911Z,14.70
2022-09-17T09:47:15.549Z,14.90
2022-09-17T09:50:19.553Z,14.70
2022-09-17T09:52:59.706Z,14.60
2022-09-17T09:55:59.423Z,14.60
2022-09-17T09:58:38.614Z,14.70
2022-09-17T10:01:20.991Z,14.70
2022-09-17T10:03:51.929Z,14.70
2022-09-17T10:06:20.004Z,15.00
2022-09-17T10:08:56.262Z,15.30
2022-09-17T10:11:33.182Z,15.30
2022-09-17T10:14:25.503Z,15.30
2022-09-17T10:17:14.109Z,15.20
2022-09-17T10:19:41.804Z,15.30
2022-09-17T10:22:39.684Z,15.20
2022-09-17T10:25:21.166Z,15.00
2022-09-17T10:27:49.260Z,14.70
2022-09-17T10:30:18.341Z,14.30
2022-09-17T10:33:14.223Z,13.80
2022-09-17T10:35:41.506Z,13.40
2022-09-17T10:38:53.125Z,13.00
2022-09-17T10:41:22.561Z,13.20
2022-09-17T10:43:50.395Z,13.10
2022-09-17T10:46:29.391Z,13.10
2022-09-17T10:49:14.917Z,13.20
2022-09-17T10:51:42.571Z,13.20
2022-09-17T10:54:27.708Z,13.40
2022-09-17T10:57:00.004Z,13.60
2022-09-17T10:59:44.866Z,13.80
2022-09-17T11:02:54.306Z,14.20
2022-09-17T11:05:39.446Z,14.20
2022-09-17T11:08:48.340Z,14.30
2022-09-17T11:11:41.183Z,14.30
2022-09-17T11:14:18.085Z,13.70
2022-09-17T11:17:22.770Z,13.40
2022-09-17T11:20:28.480Z,13.30
2022-09-17T11:23:46.728Z,13.20
2022-09-17T11:26:33.887Z,13.20
2022-09-17T11:29:06.837Z,13.20
2022-09-17T11:31:43.369Z,13.40
2022-09-17T11:34:30.412Z,13.40
2022-09-17T11:37:04.665Z,13.50
2022-09-17T11:39:46.694Z,13.80
2022-09-17T11:42:18.124Z,14.00
2022-09-17T11:44:59.311Z,14.30
2022-09-17T11:47:41.427Z,14.50
2022-09-17T11:50:38.815Z,14.60
2022-09-17T11:53:30.534Z,14.80
2022-09-17T11:56:03.154Z,15.10
2022-09-17T11:58:43.855Z,15.10
2022-09-17T12:01:26.333Z,15.40
2022-09-17T12:04:11.797Z,15.40
2022-09-17T12:07:11.810Z,15.40
2022-09-17T12:09:44.334Z,15.60
2022-09-17T12:12:44.896Z,15.60
2022-09-17T12:15:20.685Z,15.80
2022-09-17T12:18:32.994Z,15.90
2022-09-17T12:21:25.785Z,16.00
2022-09-17T12:24:14.984Z,16.10
2022-09-17T12:27:00.859Z,16.10
2022-09-17T12:30:02.616Z,15.80
2022-09-17T12:32:43.577Z,15.50
2022-09-17T12:36:05.202Z,15.50
2022-09-17T12:38:47.535Z,15.20
2022-09-17T12:41:33.352Z,15.40
2022-09-17T12:44:30.424Z,15.40
2022-09-17T12:47:31.238Z,15.30
2022-09-17T12:50:29.861Z,14.90
2022-09-17T12:53:21.687Z,14.60
2022-09-17T12:55:59.283Z,14.90
2022-09-17T12:59:01.409Z,14.90
2022-09-17T13:01:31.984Z,15.20
2022-09-17T13:04:33.503Z,15.50
2022-09-17T13:07:28.314Z,15.60
2022-09-17T13:10:20.277Z,15.70
2022-09-17T13:13:04.015Z,15.80
2022-09-17T13:16:18.361Z,16.10
2022-09-17T13:19:31.882Z,16.10
2022-09-17T13:22:20.110Z,16.10
2022-09-17T13:25:01.390Z,16.10
2022-09-17T13:27:31.304Z,16.30
2022-09-17T13:30:17.222Z,16.40
2022-09-17T13:32:48.710Z,16.50
2022-09-17T13:35:34.224Z,16.60
2022-09-17T13:38:03.932Z,16.30
2022-09-17T13:40:36.079Z,16.10
2022-09-17T13:43:17.423Z,16.10
2022-09-17T13:45:59.902Z,16.10
2022-09-17T13:48:32.967Z,16.30
2022-09-17T13:51:34.746Z,16.20
2022-09-17T13:54:07.376Z,16.40
2022-09-17T13:56:39.083Z,16.60
2022-09-17T13:59:15.500Z,16.60
2022-09-17T14:02:02.997Z,16.60
2022-09-17T14:04:43.675Z,16.70
2022-09-17T14:07:37.498Z,16.60
2022-09-17T14:10:25.875Z,16.90
2022-09-17T14:13:24.984Z,17.20
2022-09-17T14:15:57.068Z,17.10
2022-09-17T14:18:28.465Z,16.80
2022-09-17T14:21:16.234Z,16.90
2022-09-17T14:23:47.589Z,17.20
2022-09-17T14:26:45.605Z,17.40
2022-09-17T14:29:15.312Z,17.40
2022-09-17T14:31:42.709Z,17.50
2022-09-17T14:34:22.081Z,17.30
2022-09-17T14:36:50.689Z,17.40
2022-09-17T14:39:25.576Z,17.20
2022-09-17T14:41:57.154Z,16.70
2022-09-17T14:44:27.360Z,16.20
2022-09-17T14:47:02.330Z,16.00
2022-09-17T14:49:33.249Z,15.50
2022-09-17T14:52:01.907Z,15.20
2022-09-17T14:54:35.176Z,15.10
2022-09-17T14:57:09.291Z,15.00
2022-09-17T14:59:58.438Z,15.00
2022-09-17T15:02:41.359Z,15.20
2022-09-17T15:05:26.225Z,15.20
2022-09-17T15:08:12.674Z,15.00
2022-09-17T15:10:49.537Z,15.10
2022-09-17T15:13:25.451Z,15.30
2022-09-17T15:16:28.235Z,15.30
2022-09-17T15:18:57.715Z,15.50
2022-09-17T15:21:38.710Z,15.50
2022-09-17T15:24:14.408Z,15.60
2022-09-17T15:26:44.222Z,15.50
2022-09-17T15:29:14.955Z,15.80
2022-09-17T15:31:42.016Z,15.80
2022-09-17T15:34:12.537Z,16.00
2022-09-17T15:36:39.540Z,15.90
2022-09-17T15:39:29.003Z,16.10
2022-09-17T15:41:58.052Z,16.00
2022-09-17T15:44:31.420Z,16.00
2022-09-17T15:47:39.405Z,16.10
2022-09-17T15:50:13.737Z,16.00
2022-09-17T15:52:40.815Z,16.00
2022-09-17T15:55:30.950Z,16.00
2022-09-17T15:57:59.705Z,16.10
2022-09-17T16:00:26.792Z,15.90
2022-09-17T16:02:55.009Z,15.80
2022-09-17T16:05:46.181Z,15.60
2022-09-17T16:08:22.703Z,15.60
2022-09-17T16:10:50.070Z,15.60
2022-09-17T16:13:19.575Z,15.70
2022-09-17T16:15:48.380Z,15.50
2022-09-17T16:18:16.293Z,15.50
2022-09-17T16:20:44.739Z,15.30
2022-09-17T16:23:11.834Z,15.30
2022-09-17T16:25:39.923Z,15.30
2022-09-17T16:28:11.758Z,15.20
2022-09-17T16:30:40.720Z,15.00
2022-09-17T16:33:11.089Z,15.00
2022-09-17T16:35:38.740Z,14.90
2022-09-17T16:38:06.150Z,15.00
2022-09-17T16:40:33.801Z,14.90
2022-09-17T16:43:02.587Z,14.90
2022-09-17T16:45:31.084Z,14.80
2022-09-17T16:47:58.372Z,14.70
2022-09-17T16:50:28.411Z,14.70
2022-09-17T16:52:55.387Z,14.60
2022-09-17T16:55:22.428Z,14.40
2022-09-17T16:57:49.604Z,14.30
2022-09-17T17:00:21.036Z,14.10
2022-09-17T17:02:56.946Z,14.20
2022-09-17T17:05:26.307Z,14.20
2022-09-17T17:07:55.172Z,14.10
2022-09-17T17:10:28.737Z,14.10
2022-09-17T17:12:56.877Z,14.10
2022-09-17T17:15:24.034Z,14.10
2022-09-17T17:17:51.439Z,14.00
2022-09-17T17:20:19.039Z,14.00
2022-09-17T17:22:47.025Z,14.00
2022-09-17T17:25:14.841Z,14.00
2022-09-17T17:27:44.383Z,14.00
2022-09-17T17:30:17.446Z,14.00
2022-09-17T17:32:48.945Z,14.00
2022-09-17T17:35:17.097Z,13.90
2022-09-17T17:37:44.422Z,13.90
2022-09-17T17:40:11.889Z,13.90
2022-09-17T17:42:44.461Z,13.90
2022-09-17T17:45:11.941Z,13.80
2022-09-17T17:47:38.966Z,13.90
2022-09-17T17:50:06.366Z,13.90
2022-09-17T17:52:33.275Z,13.80
2022-09-17T17:55:00.438Z,13.70
2022-09-17T17:57:27.595Z,13.80
2022-09-17T17:59:55.839Z,13.70
2022-09-17T18:02:23.233Z,13.60
2022-09-17T18:04:50.221Z,13.60
2022-09-17T18:07:18.428Z,13.50
2022-09-17T18:09:46.449Z,13.50
2022-09-17T18:12:13.494Z,13.60
2022-09-17T18:14:40.517Z,13.50
2022-09-17T18:17:07.346Z,13.40
2022-09-17T18:19:34.282Z,13.30
2022-09-17T18:22:01.551Z,13.30
2022-09-17T18:24:28.458Z,13.20
2022-09-17T18:26:55.456Z,13.20
2022-09-17T18:29:22.397Z,13.00
2022-09-17T18:31:50.855Z,13.00
2022-09-17T18:34:17.937Z,12.90
2022-09-17T18:36:50.778Z,12.90
2022-09-17T18:39:57.462Z,13.00
2022-09-17T18:42:05.342Z,13.00
2022-09-17T18:44:32.351Z,13.00
2022-09-17T18:46:59.432Z,13.00
2022-09-17T18:49:26.487Z,12.90
2022-09-17T18:51:53.680Z,13.00
2022-09-17T18:54:20.629Z,13.10
2022-09-17T18:56:47.821Z,13.10
2022-09-17T18:59:14.780Z,13.00
2022-09-17T19:01:41.773Z,13.00
2022-09-17T19:04:08.790Z,12.90
2022-09-17T19:06:36.129Z,12.90
2022-09-17T19:09:04.747Z,12.90
2022-09-17T19:11:36.546Z,12.90
2022-09-17T19:14:04.668Z,12.70
2022-09-17T19:16:31.726Z,12.80
2022-09-17T19:19:02.150Z,12.70
2022-09-17T19:21:29.715Z,12.80
2022-09-17T19:23:57.776Z,12.80
2022-09-17T19:26:27.813Z,12.90
2022-09-17T19:28:57.865Z,12.80
2022-09-17T19:31:25.737Z,12.90
2022-09-17T19:33:53.277Z,12.90
2022-09-17T19:36:20.659Z,12.90
2022-09-17T19:38:55.516Z,12.80
2022-09-17T19:41:26.044Z,12.80
2022-09-17T19:43:54.343Z,12.80
2022-09-17T19:46:26.081Z,12.90
2022-09-17T19:48:55.844Z,12.90
2022-09-17T19:51:26.524Z,12.80
2022-09-17T19:53:55.114Z,12.80
2022-09-17T19:56:27.018Z,12.70
2022-09-17T19:58:54.361Z,12.60
2022-09-17T20:01:27.814Z,12.50
2022-09-17T20:03:55.300Z,12.50
2022-09-17T20:06:23.519Z,12.50
2022-09-17T20:08:53.817Z,12.50
2022-09-17T20:11:23.559Z,12.50
2022-09-17T20:13:51.936Z,12.60
2022-09-17T20:16:21.742Z,12.60
2022-09-17T20:18:50.032Z,12.70
2022-09-17T20:21:24.893Z,12.60
2022-09-17T20:23:54.982Z,12.70
2022-09-17T20:26:22.953Z,12.70
2022-09-17T20:28:57.154Z,12.70
2022-09-17T20:31:27.664Z,12.70
2022-09-17T20:33:58.554Z,12.60
2022-09-17T20:36:28.489Z,12.60
2022-09-17T20:39:14.171Z,12.70
2022-09-17T20:41:43.134Z,12.50
2022-09-17T20:44:13.479Z,12.50
2022-09-17T20:46:40.632Z,12.50
2022-09-17T20:49:07.820Z,12.50
2022-09-17T20:51:36.795Z,12.40
2022-09-17T20:54:07.416Z,12.50
2022-09-17T20:56:35.781Z,12.50
2022-09-17T20:59:26.073Z,12.50
2022-09-17T21:01:54.173Z,12.50
2022-09-17T21:04:22.005Z,12.50
2022-09-17T21:06:52.768Z,12.40
2022-09-17T21:09:20.169Z,12.40
2022-09-17T21:11:48.899Z,12.40
2022-09-17T21:14:17.532Z,12.50
2022-09-17T21:16:46.205Z,12.50
2022-09-17T21:19:16.155Z,12.50
2022-09-17T21:21:43.736Z,12.60
2022-09-17T21:24:12.478Z,12.50
2022-09-17T21:26:40.939Z,12.60
2022-09-17T21:29:08.350Z,12.60
2022-09-17T21:31:37.612Z,12.60
2022-09-17T21:34:09.086Z,12.50
2022-09-17T21:36:37.512Z,12.50
2022-09-17T21:39:07.927Z,12.50
2022-09-17T21:41:39.916Z,12.60
2022-09-17T21:44:11.560Z,12.50
2022-09-17T21:46:41.703Z,12.50
2022-09-17T21:49:09.277Z,12.60
2022-09-17T21:51:43.505Z,12.60
2022-09-17T21:54:14.026Z,12.60
2022-09-17T21:56:43.887Z,12.50
2022-09-17T21:59:15.311Z,12.50
2022-09-17T22:01:52.146Z,12.40
2022-09-17T22:04:22.343Z,12.50
2022-09-17T22:06:50.334Z,12.40
2022-09-17T22:09:23.323Z,12.40
2022-09-17T22:11:52.785Z,12.40
2022-09-17T22:14:22.032Z,12.50
2022-09-17T22:16:52.583Z,12.50
2022-09-17T22:19:22.371Z,12.50
2022-09-17T22:21:52.329Z,12.50
2022-09-17T22:24:22.126Z,12.40
2022-09-17T22:26:55.965Z,12.40
2022-09-17T22:29:24.441Z,12.30
2022-09-17T22:31:51.973Z,12.30
2022-09-17T22:34:22.581Z,12.30
2022-09-17T22:36:53.148Z,12.30
2022-09-17T22:39:23.975Z,12.30
2022-09-17T22:41:51.535Z,12.30
2022-09-17T22:44:23.976Z,12.20
2022-09-17T22:46:52.080Z,12.20
2022-09-17T22:49:20.272Z,12.20
2022-09-17T22:51:48.034Z,12.20
2022-09-17T22:54:18.463Z,12.20
2022-09-17T22:56:48.065Z,12.20
2022-09-17T22:59:15.967Z,12.20
2022-09-17T23:01:46.023Z,12.20
2022-09-17T23:04:13.728Z,12.20
2022-09-17T23:06:43.768Z,12.30
2022-09-17T23:09:13.845Z,12.30
2022-09-17T23:11:42.066Z,12.30
2022-09-17T23:14:12.152Z,12.30
2022-09-17T23:16:42.430Z,12.30
2022-09-17T23:19:10.075Z,12.20
2022-09-17T23:21:38.631Z,12.30
2022-09-17T23:24:06.513Z,12.30
2022-09-17T23:26:33.679Z,12.30
2022-09-17T23:29:05.831Z,12.20
2022-09-17T23:31:35.342Z,12.20
2022-09-17T23:34:02.669Z,12.20
2022-09-17T23:36:32.262Z,12.20
2022-09-17T23:39:00.013Z,12.20
2022-09-17T23:41:29.698Z,12.20
2022-09-17T23:43:59.888Z,12.20
2022-09-17T23:46:29.015Z,12.20
2022-09-17T23:48:56.050Z,12.40
2022-09-17T23:51:28.131Z,12.30
2022-09-17T23:53:55.588Z,12.30
2022-09-17T23:56:25.809Z,12.30
2022-09-17T23:58:54.400Z,12.40
